sensor_id;sensor_type;location;lat;lon;timestamp;temperature;humidity
33955;DHT22;20233;50.804;7.126;2023-11-21T00:00:13;9.90;99.90
33955;DHT22;20233;50.804;7.126;2023-11-21T00:05:12;9.90;99.90
33955;DHT22;20233;50.804;7.126;2023-11-21T00:07:40;9.80;99.90
33955;DHT22;20233;50.804;7.126;2023-11-21T00:10:07;9.90;99.90
33955;DHT22;20233;50.804;7.126;2023-11-21T00:12:34;9.90;99.90
33955;DHT22;20233;50.804;7.126;2023-11-21T00:14:59;9.90;99.90
33955;DHT22;20233;50.804;7.126;2023-11-21T00:17:25;10.10;99.90
33955;DHT22;20233;50.804;7.126;2023-11-21T00:19:51;10.10;99.90
33955;DHT22;20233;50.804;7.126;2023-11-21T00:22:20;10.10;99.90
33955;DHT22;20233;50.804;7.126;2023-11-21T00:24:46;10.10;99.90
33955;DHT22;20233;50.804;7.126;2023-11-21T00:27:13;10.10;99.90
33955;DHT22;20233;50.804;7.126;2023-11-21T00:29:40;10.10;99.90
33955;DHT22;20233;50.804;7.126;2023-11-21T00:32:06;10.00;99.90
33955;DHT22;20233;50.804;7.126;2023-11-21T00:34:32;10.00;99.90
33955;DHT22;20233;50.804;7.126;2023-11-21T00:36:58;9.90;99.90
33955;DHT22;20233;50.804;7.126;2023-11-21T00:39:23;9.70;99.90
33955;DHT22;20233;50.804;7.126;2023-11-21T00:41:49;9.60;99.90
33955;DHT22;20233;50.804;7.126;2023-11-21T00:44:15;9.50;99.90
33955;DHT22;20233;50.804;7.126;2023-11-21T00:46:41;9.60;99.90
33955;DHT22;20233;50.804;7.126;2023-11-21T00:49:07;9.70;99.90
33955;DHT22;20233;50.804;7.126;2023-11-21T00:51:33;9.60;99.90
33955;DHT22;20233;50.804;7.126;2023-11-21T00:53:58;9.60;99.90
33955;DHT22;20233;50.804;7.126;2023-11-21T00:56:24;9.50;99.90
33955;DHT22;20233;50.804;7.126;2023-11-21T00:58:50;9.50;99.90
33955;DHT22;20233;50.804;7.126;2023-11-21T01:01:20;9.50;99.90
33955;DHT22;20233;50.804;7.126;2023-11-21T01:03:48;9.40;99.90
33955;DHT22;20233;50.804;7.126;2023-11-21T01:06:14;9.50;99.90
33955;DHT22;20233;50.804;7.126;2023-11-21T01:08:40;9.60;99.90
33955;DHT22;20233;50.804;7.126;2023-11-21T01:11:05;9.50;99.90
33955;DHT22;20233;50.804;7.126;2023-11-21T01:13:33;9.60;99.90
33955;DHT22;20233;50.804;7.126;2023-11-21T01:15:59;9.50;99.90
33955;DHT22;20233;50.804;7.126;2023-11-21T01:18:24;9.40;99.90
33955;DHT22;20233;50.804;7.126;2023-11-21T01:20:54;9.40;99.90
33955;DHT22;20233;50.804;7.126;2023-11-21T01:23:20;9.30;99.90
33955;DHT22;20233;50.804;7.126;2023-11-21T01:25:45;9.30;99.90
33955;DHT22;20233;50.804;7.126;2023-11-21T01:28:11;9.30;99.90
33955;DHT22;20233;50.804;7.126;2023-11-21T01:30:37;9.30;99.90
33955;DHT22;20233;50.804;7.126;2023-11-21T01:33:02;9.30;99.90
33955;DHT22;20233;50.804;7.126;2023-11-21T01:35:28;9.30;99.90
33955;DHT22;20233;50.804;7.126;2023-11-21T01:37:54;9.40;99.90
33955;DHT22;20233;50.804;7.126;2023-11-21T01:40:19;9.20;99.90
33955;DHT22;20233;50.804;7.126;2023-11-21T01:42:46;9.30;99.90
33955;DHT22;20233;50.804;7.126;2023-11-21T01:45:14;9.20;99.90
33955;DHT22;20233;50.804;7.126;2023-11-21T01:47:41;9.30;99.90
33955;DHT22;20233;50.804;7.126;2023-11-21T01:50:14;9.20;99.90
33955;DHT22;20233;50.804;7.126;2023-11-21T01:52:42;9.30;99.90
33955;DHT22;20233;50.804;7.126;2023-11-21T01:55:08;9.40;99.90
33955;DHT22;20233;50.804;7.126;2023-11-21T01:57:35;9.50;99.90
33955;DHT22;20233;50.804;7.126;2023-11-21T02:00:02;9.60;99.90
33955;DHT22;20233;50.804;7.126;2023-11-21T02:02:49;9.70;99.90
33955;DHT22;20233;50.804;7.126;2023-11-21T02:05:16;9.60;99.90
33955;DHT22;20233;50.804;7.126;2023-11-21T02:07:47;9.40;99.90
33955;DHT22;20233;50.804;7.126;2023-11-21T02:10:18;9.20;99.90
33955;DHT22;20233;50.804;7.126;2023-11-21T02:12:50;9.20;99.90
33955;DHT22;20233;50.804;7.126;2023-11-21T02:15:17;9.20;99.90
33955;DHT22;20233;50.804;7.126;2023-11-21T02:17:47;9.10;99.90
33955;DHT22;20233;50.804;7.126;2023-11-21T02:20:13;9.10;99.90
33955;DHT22;20233;50.804;7.126;2023-11-21T02:22:53;9.00;99.90
33955;DHT22;20233;50.804;7.126;2023-11-21T02:25:31;9.00;99.90
33955;DHT22;20233;50.804;7.126;2023-11-21T02:27:59;8.90;99.90
33955;DHT22;20233;50.804;7.126;2023-11-21T02:30:25;8.90;99.90
33955;DHT22;20233;50.804;7.126;2023-11-21T02:32:51;9.00;99.90
33955;DHT22;20233;50.804;7.126;2023-11-21T02:35:26;9.00;99.90
33955;DHT22;20233;50.804;7.126;2023-11-21T02:37:52;9.10;99.90
33955;DHT22;20233;50.804;7.126;2023-11-21T02:40:19;9.10;99.90
33955;DHT22;20233;50.804;7.126;2023-11-21T02:42:52;9.00;99.90
33955;DHT22;20233;50.804;7.126;2023-11-21T02:45:18;8.90;99.90
33955;DHT22;20233;50.804;7.126;2023-11-21T02:47:46;8.90;99.90
33955;DHT22;20233;50.804;7.126;2023-11-21T02:50:12;8.90;99.90
33955;DHT22;20233;50.804;7.126;2023-11-21T02:52:38;9.00;99.90
33955;DHT22;20233;50.804;7.126;2023-11-21T02:55:04;9.00;99.90
33955;DHT22;20233;50.804;7.126;2023-11-21T02:57:30;9.10;99.90
33955;DHT22;20233;50.804;7.126;2023-11-21T02:59:55;9.20;99.90
33955;DHT22;20233;50.804;7.126;2023-11-21T03:02:21;9.30;99.90
33955;DHT22;20233;50.804;7.126;2023-11-21T03:04:48;9.20;99.90
33955;DHT22;20233;50.804;7.126;2023-11-21T03:07:14;9.20;99.90
33955;DHT22;20233;50.804;7.126;2023-11-21T03:09:40;9.40;99.90
33955;DHT22;20233;50.804;7.126;2023-11-21T03:12:06;9.40;99.90
33955;DHT22;20233;50.804;7.126;2023-11-21T03:14:31;9.50;99.90
33955;DHT22;20233;50.804;7.126;2023-11-21T03:16:57;9.30;99.90
33955;DHT22;20233;50.804;7.126;2023-11-21T03:19:22;9.20;99.90
33955;DHT22;20233;50.804;7.126;2023-11-21T03:21:49;9.20;99.90
33955;DHT22;20233;50.804;7.126;2023-11-21T03:24:14;9.30;99.90
33955;DHT22;20233;50.804;7.126;2023-11-21T03:26:45;9.40;99.90
33955;DHT22;20233;50.804;7.126;2023-11-21T03:29:12;9.40;99.90
33955;DHT22;20233;50.804;7.126;2023-11-21T03:31:37;9.40;99.90
33955;DHT22;20233;50.804;7.126;2023-11-21T03:34:03;9.40;99.90
33955;DHT22;20233;50.804;7.126;2023-11-21T03:36:29;9.30;99.90
33955;DHT22;20233;50.804;7.126;2023-11-21T03:38:54;9.40;99.90
33955;DHT22;20233;50.804;7.126;2023-11-21T03:41:21;9.40;99.90
33955;DHT22;20233;50.804;7.126;2023-11-21T03:43:46;9.40;99.90
33955;DHT22;20233;50.804;7.126;2023-11-21T03:46:11;9.40;99.90
33955;DHT22;20233;50.804;7.126;2023-11-21T03:48:38;9.50;99.90
33955;DHT22;20233;50.804;7.126;2023-11-21T03:51:03;9.50;99.90
33955;DHT22;20233;50.804;7.126;2023-11-21T03:53:29;9.50;99.90
33955;DHT22;20233;50.804;7.126;2023-11-21T03:55:55;9.50;99.90
33955;DHT22;20233;50.804;7.126;2023-11-21T03:58:21;9.50;99.90
33955;DHT22;20233;50.804;7.126;2023-11-21T04:00:47;9.50;99.90
33955;DHT22;20233;50.804;7.126;2023-11-21T04:03:15;9.50;99.90
33955;DHT22;20233;50.804;7.126;2023-11-21T04:05:41;9.50;99.90
33955;DHT22;20233;50.804;7.126;2023-11-21T04:08:07;9.50;99.90
33955;DHT22;20233;50.804;7.126;2023-11-21T04:10:33;9.50;99.90
33955;DHT22;20233;50.804;7.126;2023-11-21T04:12:58;9.50;99.90
33955;DHT22;20233;50.804;7.126;2023-11-21T04:15:25;9.50;99.90
33955;DHT22;20233;50.804;7.126;2023-11-21T04:17:52;9.50;99.90
33955;DHT22;20233;50.804;7.126;2023-11-21T04:20:17;9.50;99.90
33955;DHT22;20233;50.804;7.126;2023-11-21T04:22:44;9.50;99.90
33955;DHT22;20233;50.804;7.126;2023-11-21T04:25:14;9.50;99.90
33955;DHT22;20233;50.804;7.126;2023-11-21T04:27:41;9.50;99.90
33955;DHT22;20233;50.804;7.126;2023-11-21T04:30:10;9.50;99.90
33955;DHT22;20233;50.804;7.126;2023-11-21T04:32:36;9.60;99.90
33955;DHT22;20233;50.804;7.126;2023-11-21T04:35:01;9.60;99.90
33955;DHT22;20233;50.804;7.126;2023-11-21T04:37:27;9.70;99.90
33955;DHT22;20233;50.804;7.126;2023-11-21T04:39:53;9.70;99.90
33955;DHT22;20233;50.804;7.126;2023-11-21T04:42:18;9.70;99.90
33955;DHT22;20233;50.804;7.126;2023-11-21T04:44:44;9.60;99.90
33955;DHT22;20233;50.804;7.126;2023-11-21T04:47:10;9.60;99.90
33955;DHT22;20233;50.804;7.126;2023-11-21T04:49:35;9.60;99.90
33955;DHT22;20233;50.804;7.126;2023-11-21T04:52:01;9.60;99.90
33955;DHT22;20233;50.804;7.126;2023-11-21T04:54:27;9.60;99.90
33955;DHT22;20233;50.804;7.126;2023-11-21T04:56:52;9.60;99.90
33955;DHT22;20233;50.804;7.126;2023-11-21T04:59:18;9.60;99.90
33955;DHT22;20233;50.804;7.126;2023-11-21T05:01:43;9.50;99.90
33955;DHT22;20233;50.804;7.126;2023-11-21T05:04:09;9.50;99.90
33955;DHT22;20233;50.804;7.126;2023-11-21T05:06:35;9.60;99.90
33955;DHT22;20233;50.804;7.126;2023-11-21T05:09:00;9.60;99.90
33955;DHT22;20233;50.804;7.126;2023-11-21T05:11:27;9.60;99.90
33955;DHT22;20233;50.804;7.126;2023-11-21T05:13:52;9.50;99.90
33955;DHT22;20233;50.804;7.126;2023-11-21T05:16:19;9.50;99.90
33955;DHT22;20233;50.804;7.126;2023-11-21T05:18:45;9.50;99.90
33955;DHT22;20233;50.804;7.126;2023-11-21T05:21:11;9.50;99.90
33955;DHT22;20233;50.804;7.126;2023-11-21T05:23:36;9.50;99.90
33955;DHT22;20233;50.804;7.126;2023-11-21T05:26:03;9.50;99.90
33955;DHT22;20233;50.804;7.126;2023-11-21T05:28:28;9.50;99.90
33955;DHT22;20233;50.804;7.126;2023-11-21T05:30:54;9.50;99.90
33955;DHT22;20233;50.804;7.126;2023-11-21T05:33:20;9.50;99.90
33955;DHT22;20233;50.804;7.126;2023-11-21T05:35:46;9.50;99.90
33955;DHT22;20233;50.804;7.126;2023-11-21T05:38:13;9.50;99.90
33955;DHT22;20233;50.804;7.126;2023-11-21T05:40:39;9.50;99.90
33955;DHT22;20233;50.804;7.126;2023-11-21T05:43:04;9.50;99.90
33955;DHT22;20233;50.804;7.126;2023-11-21T05:45:30;9.50;99.90
33955;DHT22;20233;50.804;7.126;2023-11-21T05:47:57;9.50;99.90
33955;DHT22;20233;50.804;7.126;2023-11-21T05:50:23;9.50;99.90
33955;DHT22;20233;50.804;7.126;2023-11-21T05:52:48;9.50;99.90
33955;DHT22;20233;50.804;7.126;2023-11-21T05:55:15;9.50;99.90
33955;DHT22;20233;50.804;7.126;2023-11-21T05:57:42;9.50;99.90
33955;DHT22;20233;50.804;7.126;2023-11-21T06:00:12;9.50;99.90
33955;DHT22;20233;50.804;7.126;2023-11-21T06:02:46;9.60;99.90
33955;DHT22;20233;50.804;7.126;2023-11-21T06:05:12;9.60;99.90
33955;DHT22;20233;50.804;7.126;2023-11-21T06:07:38;9.60;99.90
33955;DHT22;20233;50.804;7.126;2023-11-21T06:10:10;9.60;99.90
33955;DHT22;20233;50.804;7.126;2023-11-21T06:12:38;9.60;99.90
33955;DHT22;20233;50.804;7.126;2023-11-21T06:15:07;9.60;99.90
33955;DHT22;20233;50.804;7.126;2023-11-21T06:17:35;9.50;99.90
33955;DHT22;20233;50.804;7.126;2023-11-21T06:20:07;9.50;99.90
33955;DHT22;20233;50.804;7.126;2023-11-21T06:22:44;9.50;99.90
33955;DHT22;20233;50.804;7.126;2023-11-21T06:25:14;9.50;99.90
33955;DHT22;20233;50.804;7.126;2023-11-21T06:27:42;9.50;99.90
33955;DHT22;20233;50.804;7.126;2023-11-21T06:30:12;9.50;99.90
33955;DHT22;20233;50.804;7.126;2023-11-21T06:32:40;9.50;99.90
33955;DHT22;20233;50.804;7.126;2023-11-21T06:35:08;9.50;99.90
33955;DHT22;20233;50.804;7.126;2023-11-21T06:37:36;9.50;99.90
33955;DHT22;20233;50.804;7.126;2023-11-21T06:40:03;9.60;99.90
33955;DHT22;20233;50.804;7.126;2023-11-21T06:42:30;9.60;99.90
33955;DHT22;20233;50.804;7.126;2023-11-21T06:44:58;9.60;99.90
33955;DHT22;20233;50.804;7.126;2023-11-21T06:47:26;9.60;99.90
33955;DHT22;20233;50.804;7.126;2023-11-21T06:49:56;9.60;99.90
33955;DHT22;20233;50.804;7.126;2023-11-21T06:52:25;9.60;99.90
33955;DHT22;20233;50.804;7.126;2023-11-21T06:54:51;9.50;99.90
33955;DHT22;20233;50.804;7.126;2023-11-21T06:57:22;9.60;99.90
33955;DHT22;20233;50.804;7.126;2023-11-21T06:59:49;9.60;99.90
33955;DHT22;20233;50.804;7.126;2023-11-21T07:02:20;9.60;99.90
33955;DHT22;20233;50.804;7.126;2023-11-21T07:04:54;9.60;99.90
33955;DHT22;20233;50.804;7.126;2023-11-21T07:07:22;9.60;99.90
33955;DHT22;20233;50.804;7.126;2023-11-21T07:09:51;9.60;99.90
33955;DHT22;20233;50.804;7.126;2023-11-21T07:12:18;9.70;99.90
33955;DHT22;20233;50.804;7.126;2023-11-21T07:14:45;9.70;99.90
33955;DHT22;20233;50.804;7.126;2023-11-21T07:17:14;9.70;99.90
33955;DHT22;20233;50.804;7.126;2023-11-21T07:19:46;9.70;99.90
33955;DHT22;20233;50.804;7.126;2023-11-21T07:22:15;9.70;99.90
33955;DHT22;20233;50.804;7.126;2023-11-21T07:24:49;9.70;99.90
33955;DHT22;20233;50.804;7.126;2023-11-21T07:27:19;9.80;99.90
33955;DHT22;20233;50.804;7.126;2023-11-21T07:29:46;9.80;99.90
33955;DHT22;20233;50.804;7.126;2023-11-21T07:32:16;9.80;99.90
33955;DHT22;20233;50.804;7.126;2023-11-21T07:34:45;9.80;99.90
33955;DHT22;20233;50.804;7.126;2023-11-21T07:37:12;9.80;99.90
33955;DHT22;20233;50.804;7.126;2023-11-21T07:39:41;9.80;99.90
33955;DHT22;20233;50.804;7.126;2023-11-21T07:42:08;9.80;99.90
33955;DHT22;20233;50.804;7.126;2023-11-21T07:44:35;9.80;99.90
33955;DHT22;20233;50.804;7.126;2023-11-21T07:47:01;9.80;99.90
33955;DHT22;20233;50.804;7.126;2023-11-21T07:49:29;9.90;99.90
33955;DHT22;20233;50.804;7.126;2023-11-21T07:51:58;9.90;99.90
33955;DHT22;20233;50.804;7.126;2023-11-21T07:54:25;9.90;99.90
33955;DHT22;20233;50.804;7.126;2023-11-21T07:56:54;9.90;99.90
33955;DHT22;20233;50.804;7.126;2023-11-21T07:59:26;9.90;99.90
33955;DHT22;20233;50.804;7.126;2023-11-21T08:01:53;9.90;99.90
33955;DHT22;20233;50.804;7.126;2023-11-21T08:04:20;10.00;99.90
33955;DHT22;20233;50.804;7.126;2023-11-21T08:06:48;10.00;99.90
33955;DHT22;20233;50.804;7.126;2023-11-21T08:09:17;10.00;99.90
33955;DHT22;20233;50.804;7.126;2023-11-21T08:11:44;10.00;99.90
33955;DHT22;20233;50.804;7.126;2023-11-21T08:14:15;10.00;99.90
33955;DHT22;20233;50.804;7.126;2023-11-21T08:16:43;10.10;99.90
33955;DHT22;20233;50.804;7.126;2023-11-21T08:19:10;10.10;99.90
33955;DHT22;20233;50.804;7.126;2023-11-21T08:21:37;10.10;99.90
33955;DHT22;20233;50.804;7.126;2023-11-21T08:24:06;10.10;99.90
33955;DHT22;20233;50.804;7.126;2023-11-21T08:26:37;10.20;99.90
33955;DHT22;20233;50.804;7.126;2023-11-21T08:29:04;10.20;99.90
33955;DHT22;20233;50.804;7.126;2023-11-21T08:31:35;10.20;99.90
33955;DHT22;20233;50.804;7.126;2023-11-21T08:34:03;10.20;99.90
33955;DHT22;20233;50.804;7.126;2023-11-21T08:36:30;10.20;99.90
33955;DHT22;20233;50.804;7.126;2023-11-21T08:39:02;10.30;99.90
33955;DHT22;20233;50.804;7.126;2023-11-21T08:41:30;10.30;99.90
33955;DHT22;20233;50.804;7.126;2023-11-21T08:43:57;10.30;99.90
33955;DHT22;20233;50.804;7.126;2023-11-21T08:46:25;10.30;99.90
33955;DHT22;20233;50.804;7.126;2023-11-21T08:48:52;10.30;99.90
33955;DHT22;20233;50.804;7.126;2023-11-21T08:51:19;10.40;99.90
33955;DHT22;20233;50.804;7.126;2023-11-21T08:53:46;10.40;99.90
33955;DHT22;20233;50.804;7.126;2023-11-21T08:56:15;10.20;99.90
33955;DHT22;20233;50.804;7.126;2023-11-21T08:58:42;10.20;99.90
33955;DHT22;20233;50.804;7.126;2023-11-21T09:01:08;10.40;99.90
33955;DHT22;20233;50.804;7.126;2023-11-21T09:03:34;10.50;99.90
33955;DHT22;20233;50.804;7.126;2023-11-21T09:06:01;10.40;99.90
33955;DHT22;20233;50.804;7.126;2023-11-21T09:08:29;10.10;99.90
33955;DHT22;20233;50.804;7.126;2023-11-21T09:10:57;10.20;99.90
33955;DHT22;20233;50.804;7.126;2023-11-21T09:13:25;10.00;99.90
33955;DHT22;20233;50.804;7.126;2023-11-21T09:15:51;10.20;99.90
33955;DHT22;20233;50.804;7.126;2023-11-21T09:18:18;10.40;99.90
33955;DHT22;20233;50.804;7.126;2023-11-21T09:20:45;10.50;99.90
33955;DHT22;20233;50.804;7.126;2023-11-21T09:23:12;10.50;99.90
33955;DHT22;20233;50.804;7.126;2023-11-21T09:25:43;10.40;99.90
33955;DHT22;20233;50.804;7.126;2023-11-21T09:28:13;10.60;99.90
33955;DHT22;20233;50.804;7.126;2023-11-21T09:30:40;10.70;99.90
33955;DHT22;20233;50.804;7.126;2023-11-21T09:33:07;10.40;99.90
33955;DHT22;20233;50.804;7.126;2023-11-21T09:35:40;10.50;99.90
33955;DHT22;20233;50.804;7.126;2023-11-21T09:38:07;10.70;99.90
33955;DHT22;20233;50.804;7.126;2023-11-21T09:40:37;10.50;99.90
33955;DHT22;20233;50.804;7.126;2023-11-21T09:43:17;10.70;99.90
33955;DHT22;20233;50.804;7.126;2023-11-21T09:45:54;10.80;99.90
33955;DHT22;20233;50.804;7.126;2023-11-21T09:48:24;10.90;99.90
33955;DHT22;20233;50.804;7.126;2023-11-21T09:50:55;10.60;99.90
33955;DHT22;20233;50.804;7.126;2023-11-21T09:53:22;10.30;99.90
33955;DHT22;20233;50.804;7.126;2023-11-21T09:55:53;10.50;99.90
33955;DHT22;20233;50.804;7.126;2023-11-21T09:58:21;10.70;99.90
33955;DHT22;20233;50.804;7.126;2023-11-21T10:00:54;10.70;99.90
33955;DHT22;20233;50.804;7.126;2023-11-21T10:03:23;10.40;99.90
33955;DHT22;20233;50.804;7.126;2023-11-21T10:05:51;10.60;99.90
33955;DHT22;20233;50.804;7.126;2023-11-21T10:08:23;10.60;99.90
33955;DHT22;20233;50.804;7.126;2023-11-21T10:10:55;10.70;99.90
33955;DHT22;20233;50.804;7.126;2023-11-21T10:13:22;10.90;99.90
33955;DHT22;20233;50.804;7.126;2023-11-21T10:15:52;10.30;99.90
33955;DHT22;20233;50.804;7.126;2023-11-21T10:18:19;10.30;99.90
33955;DHT22;20233;50.804;7.126;2023-11-21T10:20:46;10.30;99.90
33955;DHT22;20233;50.804;7.126;2023-11-21T10:23:19;10.40;99.90
33955;DHT22;20233;50.804;7.126;2023-11-21T10:25:48;10.70;99.90
33955;DHT22;20233;50.804;7.126;2023-11-21T10:28:17;10.90;99.90
33955;DHT22;20233;50.804;7.126;2023-11-21T10:30:44;10.90;99.90
33955;DHT22;20233;50.804;7.126;2023-11-21T10:33:11;11.00;99.90
33955;DHT22;20233;50.804;7.126;2023-11-21T10:38:08;11.20;99.90
33955;DHT22;20233;50.804;7.126;2023-11-21T10:40:38;11.20;99.90
33955;DHT22;20233;50.804;7.126;2023-11-21T10:43:09;11.30;99.90
33955;DHT22;20233;50.804;7.126;2023-11-21T10:45:39;11.20;99.90
33955;DHT22;20233;50.804;7.126;2023-11-21T10:48:14;10.90;99.90
33955;DHT22;20233;50.804;7.126;2023-11-21T10:50:42;10.80;99.90
33955;DHT22;20233;50.804;7.126;2023-11-21T10:53:09;11.00;99.90
33955;DHT22;20233;50.804;7.126;2023-11-21T10:55:37;11.00;99.90
33955;DHT22;20233;50.804;7.126;2023-11-21T10:58:04;11.20;99.90
33955;DHT22;20233;50.804;7.126;2023-11-21T11:00:33;11.00;99.90
33955;DHT22;20233;50.804;7.126;2023-11-21T11:03:00;11.20;99.90
33955;DHT22;20233;50.804;7.126;2023-11-21T11:05:30;11.00;99.90
33955;DHT22;20233;50.804;7.126;2023-11-21T11:08:10;11.30;99.90
33955;DHT22;20233;50.804;7.126;2023-11-21T11:10:39;11.10;99.90
33955;DHT22;20233;50.804;7.126;2023-11-21T11:13:07;11.30;99.90
33955;DHT22;20233;50.804;7.126;2023-11-21T11:15:36;11.20;99.90
33955;DHT22;20233;50.804;7.126;2023-11-21T11:18:02;10.80;99.90
33955;DHT22;20233;50.804;7.126;2023-11-21T11:20:34;11.00;99.90
33955;DHT22;20233;50.804;7.126;2023-11-21T11:31:40;11.10;99.90
33955;DHT22;20233;50.804;7.126;2023-11-21T11:34:29;10.60;99.90
33955;DHT22;20233;50.804;7.126;2023-11-21T11:37:03;10.50;99.90
33955;DHT22;20233;50.804;7.126;2023-11-21T11:39:41;10.40;99.90
33955;DHT22;20233;50.804;7.126;2023-11-21T11:42:11;10.70;99.90
33955;DHT22;20233;50.804;7.126;2023-11-21T11:47:35;10.70;99.90
33955;DHT22;20233;50.804;7.126;2023-11-21T11:50:11;10.90;99.90
33955;DHT22;20233;50.804;7.126;2023-11-21T11:52:50;11.00;99.90
33955;DHT22;20233;50.804;7.126;2023-11-21T11:55:23;10.90;99.90
33955;DHT22;20233;50.804;7.126;2023-11-21T11:57:52;11.00;99.90
33955;DHT22;20233;50.804;7.126;2023-11-21T12:02:54;10.50;99.90
33955;DHT22;20233;50.804;7.126;2023-11-21T12:05:23;10.40;99.90
33955;DHT22;20233;50.804;7.126;2023-11-21T12:07:51;10.40;99.90
33955;DHT22;20233;50.804;7.126;2023-11-21T12:10:28;10.40;99.90
33955;DHT22;20233;50.804;7.126;2023-11-21T12:13:13;10.50;99.90
33955;DHT22;20233;50.804;7.126;2023-11-21T12:15:41;10.70;99.90
33955;DHT22;20233;50.804;7.126;2023-11-21T12:18:08;10.70;99.90
33955;DHT22;20233;50.804;7.126;2023-11-21T12:20:34;10.80;99.90
33955;DHT22;20233;50.804;7.126;2023-11-21T12:23:08;10.70;99.90
33955;DHT22;20233;50.804;7.126;2023-11-21T12:25:40;10.80;99.90
33955;DHT22;20233;50.804;7.126;2023-11-21T12:28:08;11.00;99.90
33955;DHT22;20233;50.804;7.126;2023-11-21T12:30:35;10.90;99.90
33955;DHT22;20233;50.804;7.126;2023-11-21T12:33:04;11.00;99.90
33955;DHT22;20233;50.804;7.126;2023-11-21T12:35:35;11.00;99.90
33955;DHT22;20233;50.804;7.126;2023-11-21T12:38:03;10.80;99.90
33955;DHT22;20233;50.804;7.126;2023-11-21T12:40:31;10.70;99.90
33955;DHT22;20233;50.804;7.126;2023-11-21T12:42:59;10.70;99.90
33955;DHT22;20233;50.804;7.126;2023-11-21T12:45:28;10.40;99.90
33955;DHT22;20233;50.804;7.126;2023-11-21T12:48:00;10.60;99.90
33955;DHT22;20233;50.804;7.126;2023-11-21T12:50:31;10.60;99.90
33955;DHT22;20233;50.804;7.126;2023-11-21T12:53:06;10.60;99.90
33955;DHT22;20233;50.804;7.126;2023-11-21T12:55:38;10.50;99.90
33955;DHT22;20233;50.804;7.126;2023-11-21T12:58:07;10.40;99.90
33955;DHT22;20233;50.804;7.126;2023-11-21T13:03:07;10.60;99.90
33955;DHT22;20233;50.804;7.126;2023-11-21T13:05:36;10.50;99.90
33955;DHT22;20233;50.804;7.126;2023-11-21T13:08:12;10.50;99.90
33955;DHT22;20233;50.804;7.126;2023-11-21T13:10:42;10.60;99.90
33955;DHT22;20233;50.804;7.126;2023-11-21T13:13:11;10.60;99.90
33955;DHT22;20233;50.804;7.126;2023-11-21T13:15:51;10.50;99.90
33955;DHT22;20233;50.804;7.126;2023-11-21T13:18:18;10.40;99.90
33955;DHT22;20233;50.804;7.126;2023-11-21T13:20:44;10.50;99.90
33955;DHT22;20233;50.804;7.126;2023-11-21T13:23:22;10.40;99.90
33955;DHT22;20233;50.804;7.126;2023-11-21T13:25:49;10.40;99.90
33955;DHT22;20233;50.804;7.126;2023-11-21T13:28:15;10.60;99.90
33955;DHT22;20233;50.804;7.126;2023-11-21T13:30:42;10.50;99.90
33955;DHT22;20233;50.804;7.126;2023-11-21T13:33:10;10.50;99.90
33955;DHT22;20233;50.804;7.126;2023-11-21T13:35:39;10.70;99.90
33955;DHT22;20233;50.804;7.126;2023-11-21T13:38:11;10.60;99.90
33955;DHT22;20233;50.804;7.126;2023-11-21T13:40:39;10.70;99.90
33955;DHT22;20233;50.804;7.126;2023-11-21T13:43:12;10.70;99.90
33955;DHT22;20233;50.804;7.126;2023-11-21T13:45:41;10.70;99.90
33955;DHT22;20233;50.804;7.126;2023-11-21T13:48:09;10.80;99.90
33955;DHT22;20233;50.804;7.126;2023-11-21T13:50:41;10.80;99.90
33955;DHT22;20233;50.804;7.126;2023-11-21T13:53:15;10.70;99.90
33955;DHT22;20233;50.804;7.126;2023-11-21T13:55:51;10.80;99.90
33955;DHT22;20233;50.804;7.126;2023-11-21T13:58:24;10.80;99.90
33955;DHT22;20233;50.804;7.126;2023-11-21T14:01:13;10.90;99.90
33955;DHT22;20233;50.804;7.126;2023-11-21T14:04:04;10.90;99.90
33955;DHT22;20233;50.804;7.126;2023-11-21T14:06:48;10.90;99.90
33955;DHT22;20233;50.804;7.126;2023-11-21T14:09:21;10.60;99.90
33955;DHT22;20233;50.804;7.126;2023-11-21T14:11:53;10.70;99.90
33955;DHT22;20233;50.804;7.126;2023-11-21T14:14:23;10.70;99.90
33955;DHT22;20233;50.804;7.126;2023-11-21T14:16:51;10.70;99.90
33955;DHT22;20233;50.804;7.126;2023-11-21T14:19:19;10.70;99.90
33955;DHT22;20233;50.804;7.126;2023-11-21T14:21:46;10.80;99.90
33955;DHT22;20233;50.804;7.126;2023-11-21T14:24:15;10.80;99.90
33955;DHT22;20233;50.804;7.126;2023-11-21T14:26:46;10.70;99.90
33955;DHT22;20233;50.804;7.126;2023-11-21T14:29:18;10.80;99.90
33955;DHT22;20233;50.804;7.126;2023-11-21T14:31:49;10.70;99.90
33955;DHT22;20233;50.804;7.126;2023-11-21T14:34:17;10.60;99.90
33955;DHT22;20233;50.804;7.126;2023-11-21T14:36:44;10.70;99.90
33955;DHT22;20233;50.804;7.126;2023-11-21T14:39:13;10.70;99.90
33955;DHT22;20233;50.804;7.126;2023-11-21T14:41:50;10.60;99.90
33955;DHT22;20233;50.804;7.126;2023-11-21T14:44:18;10.60;99.90
33955;DHT22;20233;50.804;7.126;2023-11-21T14:46:44;10.60;99.90
33955;DHT22;20233;50.804;7.126;2023-11-21T14:49:13;10.70;99.90
33955;DHT22;20233;50.804;7.126;2023-11-21T14:51:48;10.90;99.90
33955;DHT22;20233;50.804;7.126;2023-11-21T14:54:33;10.90;99.90
33955;DHT22;20233;50.804;7.126;2023-11-21T14:57:12;10.60;99.90
33955;DHT22;20233;50.804;7.126;2023-11-21T14:59:50;10.70;99.90
33955;DHT22;20233;50.804;7.126;2023-11-21T15:02:20;10.70;99.90
33955;DHT22;20233;50.804;7.126;2023-11-21T15:04:49;10.70;99.90
33955;DHT22;20233;50.804;7.126;2023-11-21T15:07:25;10.80;99.90
33955;DHT22;20233;50.804;7.126;2023-11-21T15:09:53;10.90;99.90
33955;DHT22;20233;50.804;7.126;2023-11-21T15:12:20;10.80;99.90
33955;DHT22;20233;50.804;7.126;2023-11-21T15:14:53;10.80;99.90
33955;DHT22;20233;50.804;7.126;2023-11-21T15:17:23;10.70;99.90
33955;DHT22;20233;50.804;7.126;2023-11-21T15:23:26;10.90;99.90
33955;DHT22;20233;50.804;7.126;2023-11-21T15:25:57;10.60;99.90
33955;DHT22;20233;50.804;7.126;2023-11-21T15:28:23;10.50;99.90
33955;DHT22;20233;50.804;7.126;2023-11-21T15:30:50;10.40;99.90
33955;DHT22;20233;50.804;7.126;2023-11-21T15:33:16;10.40;99.90
33955;DHT22;20233;50.804;7.126;2023-11-21T15:35:42;10.40;99.90
33955;DHT22;20233;50.804;7.126;2023-11-21T15:38:08;10.40;99.90
33955;DHT22;20233;50.804;7.126;2023-11-21T15:40:34;10.60;99.90
33955;DHT22;20233;50.804;7.126;2023-11-21T15:43:00;10.70;99.90
33955;DHT22;20233;50.804;7.126;2023-11-21T15:45:28;10.80;99.90
33955;DHT22;20233;50.804;7.126;2023-11-21T15:47:53;10.70;99.90
33955;DHT22;20233;50.804;7.126;2023-11-21T15:50:20;10.70;99.90
33955;DHT22;20233;50.804;7.126;2023-11-21T15:52:45;10.70;99.90
33955;DHT22;20233;50.804;7.126;2023-11-21T15:55:12;10.70;99.90
33955;DHT22;20233;50.804;7.126;2023-11-21T15:57:38;10.50;99.90
33955;DHT22;20233;50.804;7.126;2023-11-21T16:00:04;10.60;99.90
33955;DHT22;20233;50.804;7.126;2023-11-21T16:02:36;10.50;99.90
33955;DHT22;20233;50.804;7.126;2023-11-21T16:05:04;10.60;99.90
33955;DHT22;20233;50.804;7.126;2023-11-21T16:07:30;10.70;99.90
33955;DHT22;20233;50.804;7.126;2023-11-21T16:09:56;10.60;99.90